Main page
METAR-TAF:

METAR-TAF

Airports :

Santander Airport

Santander, Spain

latitude: 43-26N, longitude: 003-49W, elevation: 6 m

Current weather observation

The report was made 25 minutes ago, at 00:30 UTC
Calm wind
Temperature 15°C
Humidity 100%
Pressure 1022 hPa
Visibility: 6000 m

METAR: LEXJ 230030Z AUTO 00000KT 6000 NCD 15/15 Q1022

Time: 02:55 (00:55 UTC)

Forecast

The report was made 4 hours and 55 minutes ago, at 20:00 UTC
Forecast valid from 22 at 21 UTC to 23 at 21 UTC
Wind 4 kt from variable directions
Visibility 10 km or more
Few clouds at a height of 1500 ft
Scattered clouds at a height of 3000 ft
Becoming
from 23 at 09 UTC to 23 at 12 UTC
Wind 12 kt from the East/Northeast
Probability 40% :
Temporary
from 23 at 12 UTC to 23 at 18 UTC
Wind 15 kt from the Northeast with gusts up to 25 kt

TAF: LEXJ 222000Z 2221/2321 VRB04KT 9999 FEW015 SCT030 TX22/2315Z TN17/2305Z BECMG 2309/2312 06012KT PROB40 TEMPO 2312/2318 05015G25KT

Weather observations and forecasts of more than 4000 airports (METAR and TAF reports).

The available stations are represented by yellow and red dots on the map.

Hover mouse over dot to see the name of the station.

Then click to see weather observations and forecasts.

To change the map : click on the green buttons with a black cross to zoom in, on the green button with a dash to zoom out, or on the green arrows for adjacent maps.


METAR-TAF: